Terminal Aerodrome Forecast
Issued by NWS

Home | Current Version | Previous Version | Graphics & Text | Print | Product List | Glossary On
Versions: 1 2 3 4 5 6 7 8 9 10 11 12 13 14 15 16 17
000
FTUS43 KICT 201900 AAA
TAFHUT
TAF AMD
KHUT 201934Z 2020/2118 17015KT P6SM VCSH SCT050 BKN100
     FM210000 17010KT P6SM VCTS SCT030 BKN050CB
     FM210400 22012KT P6SM VCSH BKN030
     FM211300 34014KT P6SM VCSH BKN025
     FM211500 36012KT P6SM SCT025 BKN060=

USA.gov is the U.S. government's official web portal to all federal, state and local government web resources and services.